sensor_id;sensor_type;location;lat;lon;timestamp;P1;durP1;ratioP1;P2;durP2;ratioP2
78901;SDS011;68290;44.716;37.756;2023-03-03T12:53:37;5.28;;;2.08;;
78901;SDS011;68290;44.716;37.756;2023-03-03T12:55:09;5.45;;;1.77;;
78901;SDS011;68290;44.716;37.756;2023-03-03T13:02:32;6.65;;;2.15;;
78901;SDS011;68290;44.716;37.756;2023-03-03T13:04:02;4.78;;;2.15;;
78901;SDS011;68290;44.716;37.756;2023-03-03T13:08:18;5.50;;;1.90;;
78901;SDS011;68290;44.716;37.756;2023-03-03T13:16:35;4.78;;;2.30;;
78901;SDS011;68290;44.716;37.756;2023-03-03T13:17:48;7.28;;;2.20;;
78901;SDS011;68290;44.716;37.756;2023-03-03T13:18:59;5.05;;;2.40;;
78901;SDS011;68290;44.716;37.756;2023-03-03T13:21:53;5.30;;;2.15;;
78901;SDS011;68290;44.716;37.756;2023-03-03T13:24:26;5.47;;;2.45;;
78901;SDS011;68290;44.716;37.756;2023-03-03T13:25:52;5.40;;;2.15;;
78901;SDS011;68290;44.716;37.756;2023-03-03T13:27:21;5.40;;;1.98;;
78901;SDS011;68290;44.716;37.756;2023-03-03T13:28:31;6.18;;;1.90;;
78901;SDS011;68290;44.716;37.756;2023-03-03T13:31:02;5.15;;;2.38;;
78901;SDS011;68290;44.716;37.756;2023-03-03T13:33:27;5.00;;;2.00;;
78901;SDS011;68290;44.716;37.756;2023-03-03T13:34:13;5.40;;;2.25;;
78901;SDS011;68290;44.716;37.756;2023-03-03T13:37:46;6.45;;;2.10;;
78901;SDS011;68290;44.716;37.756;2023-03-03T13:38:27;5.47;;;2.00;;
78901;SDS011;68290;44.716;37.756;2023-03-03T13:39:32;5.28;;;2.10;;
78901;SDS011;68290;44.716;37.756;2023-03-03T13:40:44;5.40;;;2.08;;
78901;SDS011;68290;44.716;37.756;2023-03-03T13:41:54;5.55;;;1.92;;
78901;SDS011;68290;44.716;37.756;2023-03-03T13:44:11;5.25;;;2.60;;
78901;SDS011;68290;44.716;37.756;2023-03-03T13:49:52;5.22;;;2.00;;
78901;SDS011;68290;44.716;37.756;2023-03-03T13:51:03;3.95;;;1.90;;
78901;SDS011;68290;44.716;37.756;2023-03-03T13:52:20;5.30;;;2.13;;
78901;SDS011;68290;44.716;37.756;2023-03-03T13:58:48;5.97;;;2.03;;
78901;SDS011;68290;44.716;37.756;2023-03-03T14:01:04;6.40;;;2.05;;
78901;SDS011;68290;44.716;37.756;2023-03-03T14:02:33;5.22;;;2.13;;
78901;SDS011;68290;44.716;37.756;2023-03-03T14:05:12;5.07;;;2.30;;
78901;SDS011;68290;44.716;37.756;2023-03-03T14:06:18;4.63;;;2.15;;
78901;SDS011;68290;44.716;37.756;2023-03-03T14:07:26;4.30;;;2.10;;
78901;SDS011;68290;44.716;37.756;2023-03-03T14:08:48;5.28;;;2.35;;
78901;SDS011;68290;44.716;37.756;2023-03-03T14:10:02;4.13;;;2.08;;
78901;SDS011;68290;44.716;37.756;2023-03-03T14:11:24;4.65;;;1.90;;
78901;SDS011;68290;44.716;37.756;2023-03-03T14:16:37;3.92;;;1.77;;
78901;SDS011;68290;44.716;37.756;2023-03-03T14:19:13;4.55;;;2.13;;
78901;SDS011;68290;44.716;37.756;2023-03-03T14:20:19;4.20;;;1.80;;
78901;SDS011;68290;44.716;37.756;2023-03-03T14:21:29;4.93;;;2.03;;
78901;SDS011;68290;44.716;37.756;2023-03-03T14:22:44;5.45;;;1.90;;
78901;SDS011;68290;44.716;37.756;2023-03-03T14:24:39;5.00;;;1.98;;
78901;SDS011;68290;44.716;37.756;2023-03-03T14:25:22;4.90;;;2.03;;
78901;SDS011;68290;44.716;37.756;2023-03-03T14:26:24;5.18;;;2.47;;
78901;SDS011;68290;44.716;37.756;2023-03-03T14:27:27;4.80;;;2.40;;
78901;SDS011;68290;44.716;37.756;2023-03-03T14:28:45;5.25;;;2.20;;
78901;SDS011;68290;44.716;37.756;2023-03-03T14:29:48;4.60;;;1.73;;
78901;SDS011;68290;44.716;37.756;2023-03-03T14:30:50;4.40;;;1.85;;
78901;SDS011;68290;44.716;37.756;2023-03-03T14:31:58;4.22;;;1.98;;
78901;SDS011;68290;44.716;37.756;2023-03-03T14:33:04;4.47;;;1.85;;
78901;SDS011;68290;44.716;37.756;2023-03-03T14:35:24;6.70;;;2.25;;
78901;SDS011;68290;44.716;37.756;2023-03-03T14:36:33;4.55;;;2.17;;
78901;SDS011;68290;44.716;37.756;2023-03-03T14:37:42;4.85;;;2.10;;
78901;SDS011;68290;44.716;37.756;2023-03-03T14:38:46;5.10;;;2.13;;
78901;SDS011;68290;44.716;37.756;2023-03-03T14:42:36;5.35;;;2.15;;
78901;SDS011;68290;44.716;37.756;2023-03-03T14:45:12;5.10;;;2.28;;
78901;SDS011;68290;44.716;37.756;2023-03-03T14:47:29;7.82;;;2.60;;
78901;SDS011;68290;44.716;37.756;2023-03-03T14:48:31;6.97;;;2.65;;
78901;SDS011;68290;44.716;37.756;2023-03-03T14:49:33;7.60;;;2.50;;
78901;SDS011;68290;44.716;37.756;2023-03-03T14:50:46;8.65;;;2.50;;
78901;SDS011;68290;44.716;37.756;2023-03-03T14:51:53;6.43;;;2.70;;
78901;SDS011;68290;44.716;37.756;2023-03-03T14:53:19;8.10;;;2.40;;
78901;SDS011;68290;44.716;37.756;2023-03-03T14:54:33;7.32;;;2.58;;
78901;SDS011;68290;44.716;37.756;2023-03-03T14:55:39;7.88;;;2.90;;
78901;SDS011;68290;44.716;37.756;2023-03-03T14:56:54;6.50;;;2.60;;
78901;SDS011;68290;44.716;37.756;2023-03-03T14:57:58;5.45;;;2.50;;
78901;SDS011;68290;44.716;37.756;2023-03-03T14:59:11;6.25;;;2.85;;
78901;SDS011;68290;44.716;37.756;2023-03-03T15:01:33;6.60;;;3.13;;
78901;SDS011;68290;44.716;37.756;2023-03-03T15:02:36;6.32;;;2.63;;
78901;SDS011;68290;44.716;37.756;2023-03-03T15:03:44;7.10;;;3.10;;
78901;SDS011;68290;44.716;37.756;2023-03-03T15:04:52;8.50;;;2.78;;
78901;SDS011;68290;44.716;37.756;2023-03-03T15:06:50;5.82;;;2.92;;
78901;SDS011;68290;44.716;37.756;2023-03-03T15:07:55;6.82;;;2.60;;
78901;SDS011;68290;44.716;37.756;2023-03-03T15:11:36;7.28;;;3.20;;
78901;SDS011;68290;44.716;37.756;2023-03-03T15:12:38;6.30;;;3.00;;
78901;SDS011;68290;44.716;37.756;2023-03-03T15:13:41;7.63;;;3.10;;
78901;SDS011;68290;44.716;37.756;2023-03-03T15:14:43;7.45;;;3.40;;
78901;SDS011;68290;44.716;37.756;2023-03-03T15:16:32;7.70;;;3.50;;
78901;SDS011;68290;44.716;37.756;2023-03-03T15:17:25;7.00;;;3.28;;
78901;SDS011;68290;44.716;37.756;2023-03-03T15:18:30;6.55;;;3.03;;
78901;SDS011;68290;44.716;37.756;2023-03-03T15:21:07;8.27;;;3.67;;
78901;SDS011;68290;44.716;37.756;2023-03-03T15:25:00;7.40;;;3.47;;
78901;SDS011;68290;44.716;37.756;2023-03-03T15:27:50;8.35;;;3.63;;
78901;SDS011;68290;44.716;37.756;2023-03-03T15:29:36;10.38;;;3.85;;
78901;SDS011;68290;44.716;37.756;2023-03-03T15:30:46;12.18;;;4.10;;
78901;SDS011;68290;44.716;37.756;2023-03-03T15:32:07;10.50;;;3.75;;
78901;SDS011;68290;44.716;37.756;2023-03-03T15:33:28;9.65;;;4.20;;
78901;SDS011;68290;44.716;37.756;2023-03-03T15:34:48;9.65;;;3.92;;
78901;SDS011;68290;44.716;37.756;2023-03-03T15:38:53;7.63;;;4.05;;
78901;SDS011;68290;44.716;37.756;2023-03-03T15:42:12;9.45;;;3.95;;
78901;SDS011;68290;44.716;37.756;2023-03-03T15:43:25;8.02;;;3.90;;
78901;SDS011;68290;44.716;37.756;2023-03-03T15:44:53;8.75;;;4.20;;
78901;SDS011;68290;44.716;37.756;2023-03-03T15:48:44;9.48;;;4.90;;
78901;SDS011;68290;44.716;37.756;2023-03-03T15:52:53;9.40;;;4.40;;
78901;SDS011;68290;44.716;37.756;2023-03-03T15:57:00;9.30;;;4.75;;
78901;SDS011;68290;44.716;37.756;2023-03-03T15:59:45;10.20;;;4.68;;
78901;SDS011;68290;44.716;37.756;2023-03-03T16:01:24;8.55;;;4.43;;
78901;SDS011;68290;44.716;37.756;2023-03-03T16:02:53;9.02;;;4.47;;
78901;SDS011;68290;44.716;37.756;2023-03-03T16:03:58;9.63;;;5.15;;
78901;SDS011;68290;44.716;37.756;2023-03-03T16:06:21;8.73;;;4.60;;
78901;SDS011;68290;44.716;37.756;2023-03-03T16:07:34;9.65;;;5.05;;
78901;SDS011;68290;44.716;37.756;2023-03-03T16:09:06;10.30;;;4.47;;
78901;SDS011;68290;44.716;37.756;2023-03-03T16:15:46;11.02;;;4.57;;
78901;SDS011;68290;44.716;37.756;2023-03-03T16:17:17;11.52;;;5.13;;
78901;SDS011;68290;44.716;37.756;2023-03-03T16:18:44;13.43;;;5.00;;
78901;SDS011;68290;44.716;37.756;2023-03-03T16:19:55;10.93;;;5.00;;
78901;SDS011;68290;44.716;37.756;2023-03-03T16:21:25;11.15;;;4.78;;
78901;SDS011;68290;44.716;37.756;2023-03-03T16:23:59;10.50;;;5.28;;
78901;SDS011;68290;44.716;37.756;2023-03-03T16:26:44;10.57;;;4.90;;
78901;SDS011;68290;44.716;37.756;2023-03-03T16:27:55;12.88;;;5.63;;
78901;SDS011;68290;44.716;37.756;2023-03-03T16:30:32;10.30;;;4.65;;
78901;SDS011;68290;44.716;37.756;2023-03-03T16:35:13;11.70;;;5.03;;
78901;SDS011;68290;44.716;37.756;2023-03-03T16:37:31;9.68;;;4.88;;
78901;SDS011;68290;44.716;37.756;2023-03-03T16:38:52;9.25;;;4.85;;
78901;SDS011;68290;44.716;37.756;2023-03-03T16:40:19;11.50;;;4.53;;
78901;SDS011;68290;44.716;37.756;2023-03-03T16:44:33;10.27;;;4.68;;
78901;SDS011;68290;44.716;37.756;2023-03-03T16:46:02;9.65;;;4.50;;
78901;SDS011;68290;44.716;37.756;2023-03-03T16:48:35;11.45;;;4.75;;
78901;SDS011;68290;44.716;37.756;2023-03-03T16:52:35;11.10;;;4.88;;
78901;SDS011;68290;44.716;37.756;2023-03-03T16:55:08;9.20;;;4.55;;
78901;SDS011;68290;44.716;37.756;2023-03-03T16:56:23;10.60;;;4.70;;
78901;SDS011;68290;44.716;37.756;2023-03-03T16:57:39;9.30;;;4.68;;
78901;SDS011;68290;44.716;37.756;2023-03-03T17:05:16;10.32;;;4.47;;
78901;SDS011;68290;44.716;37.756;2023-03-03T17:06:35;8.40;;;4.80;;
78901;SDS011;68290;44.716;37.756;2023-03-03T17:17:18;13.25;;;4.57;;
78901;SDS011;68290;44.716;37.756;2023-03-03T17:21:13;7.93;;;4.30;;
78901;SDS011;68290;44.716;37.756;2023-03-03T17:21:55;8.07;;;3.92;;
78901;SDS011;68290;44.716;37.756;2023-03-03T17:23:18;9.45;;;4.28;;
78901;SDS011;68290;44.716;37.756;2023-03-03T17:24:36;7.78;;;4.30;;
78901;SDS011;68290;44.716;37.756;2023-03-03T17:27:39;7.05;;;4.22;;
78901;SDS011;68290;44.716;37.756;2023-03-03T17:35:03;7.05;;;3.97;;
78901;SDS011;68290;44.716;37.756;2023-03-03T17:37:42;8.90;;;4.15;;
78901;SDS011;68290;44.716;37.756;2023-03-03T17:43:00;9.70;;;4.20;;
78901;SDS011;68290;44.716;37.756;2023-03-03T17:45:43;7.18;;;3.88;;
78901;SDS011;68290;44.716;37.756;2023-03-03T17:46:53;7.13;;;4.00;;
78901;SDS011;68290;44.716;37.756;2023-03-03T17:52:37;8.15;;;3.50;;
78901;SDS011;68290;44.716;37.756;2023-03-03T17:53:53;8.85;;;3.72;;
78901;SDS011;68290;44.716;37.756;2023-03-03T17:59:43;6.97;;;3.35;;
78901;SDS011;68290;44.716;37.756;2023-03-03T18:02:35;7.55;;;3.60;;
78901;SDS011;68290;44.716;37.756;2023-03-03T18:17:01;7.72;;;4.25;;
78901;SDS011;68290;44.716;37.756;2023-03-03T18:22:49;6.75;;;3.67;;
78901;SDS011;68290;44.716;37.756;2023-03-03T18:23:52;7.57;;;3.65;;
78901;SDS011;68290;44.716;37.756;2023-03-03T18:25:50;7.65;;;4.22;;
78901;SDS011;68290;44.716;37.756;2023-03-03T18:28:45;8.80;;;4.03;;
78901;SDS011;68290;44.716;37.756;2023-03-03T18:33:05;6.07;;;3.63;;
78901;SDS011;68290;44.716;37.756;2023-03-03T18:36:50;8.27;;;3.90;;
78901;SDS011;68290;44.716;37.756;2023-03-03T18:37:55;7.85;;;3.97;;
78901;SDS011;68290;44.716;37.756;2023-03-03T18:44:40;7.43;;;4.00;;
78901;SDS011;68290;44.716;37.756;2023-03-03T18:46:45;8.30;;;4.22;;
78901;SDS011;68290;44.716;37.756;2023-03-03T18:49:08;7.28;;;4.40;;
78901;SDS011;68290;44.716;37.756;2023-03-03T18:50:53;7.18;;;4.22;;
78901;SDS011;68290;44.716;37.756;2023-03-03T18:55:22;8.05;;;4.13;;
78901;SDS011;68290;44.716;37.756;2023-03-03T18:56:42;7.60;;;3.92;;
78901;SDS011;68290;44.716;37.756;2023-03-03T18:58:21;7.15;;;3.83;;
78901;SDS011;68290;44.716;37.756;2023-03-03T19:00:40;7.63;;;3.83;;
78901;SDS011;68290;44.716;37.756;2023-03-03T19:01:45;8.43;;;4.75;;
78901;SDS011;68290;44.716;37.756;2023-03-03T19:02:52;9.65;;;5.25;;
78901;SDS011;68290;44.716;37.756;2023-03-03T19:03:57;8.15;;;4.43;;
78901;SDS011;68290;44.716;37.756;2023-03-03T19:07:14;10.90;;;5.70;;
78901;SDS011;68290;44.716;37.756;2023-03-03T19:07:57;8.70;;;4.68;;
78901;SDS011;68290;44.716;37.756;2023-03-03T19:09:03;8.25;;;4.80;;
78901;SDS011;68290;44.716;37.756;2023-03-03T19:10:11;9.10;;;4.85;;
78901;SDS011;68290;44.716;37.756;2023-03-03T19:11:41;7.75;;;4.95;;
78901;SDS011;68290;44.716;37.756;2023-03-03T19:16:30;8.25;;;4.88;;
78901;SDS011;68290;44.716;37.756;2023-03-03T19:22:27;8.75;;;4.55;;
78901;SDS011;68290;44.716;37.756;2023-03-03T19:25:11;7.72;;;4.47;;
78901;SDS011;68290;44.716;37.756;2023-03-03T19:27:27;7.85;;;4.57;;
78901;SDS011;68290;44.716;37.756;2023-03-03T19:30:50;8.70;;;4.47;;
78901;SDS011;68290;44.716;37.756;2023-03-03T19:32:07;8.90;;;4.55;;
78901;SDS011;68290;44.716;37.756;2023-03-03T19:34:22;8.55;;;4.45;;
78901;SDS011;68290;44.716;37.756;2023-03-03T19:37:16;7.07;;;4.40;;
78901;SDS011;68290;44.716;37.756;2023-03-03T19:38:49;7.68;;;4.55;;
78901;SDS011;68290;44.716;37.756;2023-03-03T19:39:56;7.55;;;4.45;;
78901;SDS011;68290;44.716;37.756;2023-03-03T19:41:38;8.48;;;4.45;;
78901;SDS011;68290;44.716;37.756;2023-03-03T19:44:42;10.85;;;4.70;;
78901;SDS011;68290;44.716;37.756;2023-03-03T19:46:16;9.02;;;4.40;;
78901;SDS011;68290;44.716;37.756;2023-03-03T19:47:49;8.82;;;4.60;;
78901;SDS011;68290;44.716;37.756;2023-03-03T19:50:35;8.80;;;4.32;;
78901;SDS011;68290;44.716;37.756;2023-03-03T19:53:09;10.55;;;4.85;;
78901;SDS011;68290;44.716;37.756;2023-03-03T19:57:48;7.65;;;4.25;;
78901;SDS011;68290;44.716;37.756;2023-03-03T20:06:31;7.47;;;4.47;;
78901;SDS011;68290;44.716;37.756;2023-03-03T20:07:32;8.15;;;4.05;;
78901;SDS011;68290;44.716;37.756;2023-03-03T20:09:15;7.25;;;3.90;;
78901;SDS011;68290;44.716;37.756;2023-03-03T20:14:57;8.00;;;4.20;;
78901;SDS011;68290;44.716;37.756;2023-03-03T20:22:07;8.48;;;4.30;;
78901;SDS011;68290;44.716;37.756;2023-03-03T20:23:27;7.95;;;3.67;;
78901;SDS011;68290;44.716;37.756;2023-03-03T20:27:06;8.45;;;3.88;;
78901;SDS011;68290;44.716;37.756;2023-03-03T20:29:51;8.10;;;3.85;;
78901;SDS011;68290;44.716;37.756;2023-03-03T20:37:02;7.43;;;4.07;;
78901;SDS011;68290;44.716;37.756;2023-03-03T20:39:41;7.10;;;3.97;;
78901;SDS011;68290;44.716;37.756;2023-03-03T20:41:25;6.78;;;3.35;;
78901;SDS011;68290;44.716;37.756;2023-03-03T20:46:06;6.95;;;3.90;;
78901;SDS011;68290;44.716;37.756;2023-03-03T20:50:16;7.35;;;3.88;;
78901;SDS011;68290;44.716;37.756;2023-03-03T20:52:33;6.82;;;3.90;;
78901;SDS011;68290;44.716;37.756;2023-03-03T20:55:14;7.10;;;3.63;;
78901;SDS011;68290;44.716;37.756;2023-03-03T20:59:23;6.13;;;3.20;;
78901;SDS011;68290;44.716;37.756;2023-03-03T21:03:23;5.95;;;3.45;;
78901;SDS011;68290;44.716;37.756;2023-03-03T21:04:35;5.80;;;3.60;;
78901;SDS011;68290;44.716;37.756;2023-03-03T21:07:24;7.95;;;4.03;;
78901;SDS011;68290;44.716;37.756;2023-03-03T21:08:39;6.45;;;3.95;;
78901;SDS011;68290;44.716;37.756;2023-03-03T21:10:10;8.52;;;3.75;;
78901;SDS011;68290;44.716;37.756;2023-03-03T21:12:30;6.35;;;3.83;;
78901;SDS011;68290;44.716;37.756;2023-03-03T21:15:41;7.53;;;3.42;;
78901;SDS011;68290;44.716;37.756;2023-03-03T21:16:42;6.90;;;3.65;;
78901;SDS011;68290;44.716;37.756;2023-03-03T21:17:44;6.88;;;3.38;;
78901;SDS011;68290;44.716;37.756;2023-03-03T21:20:29;6.10;;;3.25;;
78901;SDS011;68290;44.716;37.756;2023-03-03T21:21:36;6.65;;;3.72;;
78901;SDS011;68290;44.716;37.756;2023-03-03T21:22:39;6.55;;;3.55;;
78901;SDS011;68290;44.716;37.756;2023-03-03T21:23:40;7.13;;;3.65;;
78901;SDS011;68290;44.716;37.756;2023-03-03T21:24:54;7.05;;;3.60;;
78901;SDS011;68290;44.716;37.756;2023-03-03T21:25:58;7.55;;;3.65;;
78901;SDS011;68290;44.716;37.756;2023-03-03T21:27:00;6.55;;;3.30;;
78901;SDS011;68290;44.716;37.756;2023-03-03T21:28:14;6.38;;;3.53;;
78901;SDS011;68290;44.716;37.756;2023-03-03T21:29:30;7.30;;;3.67;;
78901;SDS011;68290;44.716;37.756;2023-03-03T21:30:33;6.97;;;3.42;;
78901;SDS011;68290;44.716;37.756;2023-03-03T21:31:42;6.80;;;3.17;;
78901;SDS011;68290;44.716;37.756;2023-03-03T21:32:47;6.50;;;3.55;;
78901;SDS011;68290;44.716;37.756;2023-03-03T21:35:02;5.53;;;2.85;;
78901;SDS011;68290;44.716;37.756;2023-03-03T21:36:05;5.78;;;3.08;;
78901;SDS011;68290;44.716;37.756;2023-03-03T21:37:10;8.00;;;3.78;;
78901;SDS011;68290;44.716;37.756;2023-03-03T21:38:30;5.97;;;3.55;;
78901;SDS011;68290;44.716;37.756;2023-03-03T21:39:34;7.03;;;3.60;;
78901;SDS011;68290;44.716;37.756;2023-03-03T21:40:40;6.10;;;3.33;;
78901;SDS011;68290;44.716;37.756;2023-03-03T21:42:52;6.07;;;3.15;;
78901;SDS011;68290;44.716;37.756;2023-03-03T21:43:55;5.90;;;3.03;;
78901;SDS011;68290;44.716;37.756;2023-03-03T21:44:57;6.38;;;3.17;;
78901;SDS011;68290;44.716;37.756;2023-03-03T21:46:08;6.25;;;3.08;;
78901;SDS011;68290;44.716;37.756;2023-03-03T21:47:11;5.05;;;2.80;;
78901;SDS011;68290;44.716;37.756;2023-03-03T21:48:14;6.05;;;3.20;;
78901;SDS011;68290;44.716;37.756;2023-03-03T21:49:16;5.75;;;3.17;;
78901;SDS011;68290;44.716;37.756;2023-03-03T21:50:17;6.05;;;3.17;;
78901;SDS011;68290;44.716;37.756;2023-03-03T21:51:21;6.97;;;3.63;;
78901;SDS011;68290;44.716;37.756;2023-03-03T21:52:24;5.97;;;3.30;;
78901;SDS011;68290;44.716;37.756;2023-03-03T21:53:25;6.38;;;3.00;;
78901;SDS011;68290;44.716;37.756;2023-03-03T21:54:29;6.13;;;3.20;;
78901;SDS011;68290;44.716;37.756;2023-03-03T21:55:30;6.32;;;3.20;;
78901;SDS011;68290;44.716;37.756;2023-03-03T21:56:31;5.97;;;3.40;;
78901;SDS011;68290;44.716;37.756;2023-03-03T21:57:35;5.10;;;3.00;;
78901;SDS011;68290;44.716;37.756;2023-03-03T21:58:36;4.88;;;2.72;;
78901;SDS011;68290;44.716;37.756;2023-03-03T21:59:38;5.20;;;2.90;;
78901;SDS011;68290;44.716;37.756;2023-03-03T22:00:39;6.80;;;3.38;;
78901;SDS011;68290;44.716;37.756;2023-03-03T22:01:42;5.78;;;2.90;;
78901;SDS011;68290;44.716;37.756;2023-03-03T22:02:44;6.28;;;2.78;;
78901;SDS011;68290;44.716;37.756;2023-03-03T22:03:45;5.45;;;2.75;;
78901;SDS011;68290;44.716;37.756;2023-03-03T22:04:47;5.60;;;3.15;;
78901;SDS011;68290;44.716;37.756;2023-03-03T22:05:48;6.30;;;3.08;;
78901;SDS011;68290;44.716;37.756;2023-03-03T22:06:49;6.20;;;3.00;;
78901;SDS011;68290;44.716;37.756;2023-03-03T22:07:52;5.43;;;2.90;;
78901;SDS011;68290;44.716;37.756;2023-03-03T22:08:53;5.90;;;2.80;;
78901;SDS011;68290;44.716;37.756;2023-03-03T22:09:55;5.07;;;2.78;;
78901;SDS011;68290;44.716;37.756;2023-03-03T22:10:56;5.85;;;3.10;;
78901;SDS011;68290;44.716;37.756;2023-03-03T22:11:57;5.50;;;2.80;;
78901;SDS011;68290;44.716;37.756;2023-03-03T22:12:59;5.25;;;2.72;;
78901;SDS011;68290;44.716;37.756;2023-03-03T22:14:00;5.95;;;2.90;;
78901;SDS011;68290;44.716;37.756;2023-03-03T22:15:02;6.32;;;3.03;;
78901;SDS011;68290;44.716;37.756;2023-03-03T22:16:03;5.38;;;2.70;;
78901;SDS011;68290;44.716;37.756;2023-03-03T22:17:07;5.43;;;2.95;;
78901;SDS011;68290;44.716;37.756;2023-03-03T22:18:10;6.13;;;2.65;;
78901;SDS011;68290;44.716;37.756;2023-03-03T22:19:11;5.20;;;2.60;;
78901;SDS011;68290;44.716;37.756;2023-03-03T22:20:13;7.03;;;3.17;;
78901;SDS011;68290;44.716;37.756;2023-03-03T22:21:15;6.25;;;3.00;;
78901;SDS011;68290;44.716;37.756;2023-03-03T22:22:16;4.97;;;2.65;;
78901;SDS011;68290;44.716;37.756;2023-03-03T22:23:17;6.75;;;2.80;;
78901;SDS011;68290;44.716;37.756;2023-03-03T22:24:19;5.50;;;2.75;;
78901;SDS011;68290;44.716;37.756;2023-03-03T22:25:20;5.75;;;2.80;;
78901;SDS011;68290;44.716;37.756;2023-03-03T22:26:21;5.55;;;2.72;;
78901;SDS011;68290;44.716;37.756;2023-03-03T22:27:23;5.53;;;2.60;;
78901;SDS011;68290;44.716;37.756;2023-03-03T22:28:24;5.22;;;2.63;;
78901;SDS011;68290;44.716;37.756;2023-03-03T22:29:28;6.00;;;2.90;;
78901;SDS011;68290;44.716;37.756;2023-03-03T22:30:29;5.38;;;2.90;;
78901;SDS011;68290;44.716;37.756;2023-03-03T22:31:31;7.15;;;2.63;;
78901;SDS011;68290;44.716;37.756;2023-03-03T22:32:33;5.22;;;2.70;;
78901;SDS011;68290;44.716;37.756;2023-03-03T22:33:34;5.07;;;2.50;;
78901;SDS011;68290;44.716;37.756;2023-03-03T22:34:35;5.85;;;2.70;;
78901;SDS011;68290;44.716;37.756;2023-03-03T22:35:36;5.32;;;2.83;;
78901;SDS011;68290;44.716;37.756;2023-03-03T22:36:38;5.35;;;2.25;;
78901;SDS011;68290;44.716;37.756;2023-03-03T22:37:39;5.88;;;3.13;;
78901;SDS011;68290;44.716;37.756;2023-03-03T22:38:41;4.93;;;2.72;;
78901;SDS011;68290;44.716;37.756;2023-03-03T22:39:42;5.78;;;2.30;;
78901;SDS011;68290;44.716;37.756;2023-03-03T22:40:43;4.82;;;2.53;;
78901;SDS011;68290;44.716;37.756;2023-03-03T22:41:45;5.20;;;2.58;;
78901;SDS011;68290;44.716;37.756;2023-03-03T22:42:46;5.60;;;2.70;;
78901;SDS011;68290;44.716;37.756;2023-03-03T22:43:47;5.10;;;2.95;;
78901;SDS011;68290;44.716;37.756;2023-03-03T22:44:48;5.50;;;2.60;;
78901;SDS011;68290;44.716;37.756;2023-03-03T22:45:50;5.53;;;2.53;;
78901;SDS011;68290;44.716;37.756;2023-03-03T22:46:51;6.00;;;2.85;;
78901;SDS011;68290;44.716;37.756;2023-03-03T22:47:52;5.43;;;2.53;;
78901;SDS011;68290;44.716;37.756;2023-03-03T22:48:54;5.22;;;2.47;;
78901;SDS011;68290;44.716;37.756;2023-03-03T22:49:55;4.72;;;2.65;;
78901;SDS011;68290;44.716;37.756;2023-03-03T22:50:56;5.80;;;2.47;;
78901;SDS011;68290;44.716;37.756;2023-03-03T22:51:58;6.05;;;2.70;;
78901;SDS011;68290;44.716;37.756;2023-03-03T22:53:00;5.63;;;2.72;;
78901;SDS011;68290;44.716;37.756;2023-03-03T22:54:01;5.50;;;2.55;;
78901;SDS011;68290;44.716;37.756;2023-03-03T22:55:03;5.38;;;2.50;;
78901;SDS011;68290;44.716;37.756;2023-03-03T22:56:05;5.18;;;2.60;;
78901;SDS011;68290;44.716;37.756;2023-03-03T22:57:06;5.53;;;2.60;;
78901;SDS011;68290;44.716;37.756;2023-03-03T22:58:08;5.18;;;2.80;;
78901;SDS011;68290;44.716;37.756;2023-03-03T22:59:09;4.75;;;2.35;;
78901;SDS011;68290;44.716;37.756;2023-03-03T23:00:11;5.20;;;2.30;;
78901;SDS011;68290;44.716;37.756;2023-03-03T23:02:14;4.70;;;2.22;;
78901;SDS011;68290;44.716;37.756;2023-03-03T23:03:16;5.03;;;2.50;;
78901;SDS011;68290;44.716;37.756;2023-03-03T23:04:17;5.35;;;2.40;;
78901;SDS011;68290;44.716;37.756;2023-03-03T23:05:18;6.03;;;2.88;;
78901;SDS011;68290;44.716;37.756;2023-03-03T23:06:20;4.60;;;2.35;;
78901;SDS011;68290;44.716;37.756;2023-03-03T23:07:21;5.20;;;2.72;;
78901;SDS011;68290;44.716;37.756;2023-03-03T23:08:22;5.00;;;2.33;;
78901;SDS011;68290;44.716;37.756;2023-03-03T23:09:24;4.88;;;2.40;;
78901;SDS011;68290;44.716;37.756;2023-03-03T23:10:25;4.78;;;2.47;;
78901;SDS011;68290;44.716;37.756;2023-03-03T23:11:27;4.70;;;2.30;;
78901;SDS011;68290;44.716;37.756;2023-03-03T23:12:29;5.45;;;2.50;;
78901;SDS011;68290;44.716;37.756;2023-03-03T23:13:30;4.93;;;2.55;;
78901;SDS011;68290;44.716;37.756;2023-03-03T23:14:32;5.18;;;2.30;;
78901;SDS011;68290;44.716;37.756;2023-03-03T23:15:33;6.47;;;2.55;;
78901;SDS011;68290;44.716;37.756;2023-03-03T23:16:35;4.38;;;2.33;;
78901;SDS011;68290;44.716;37.756;2023-03-03T23:17:36;5.45;;;2.30;;
78901;SDS011;68290;44.716;37.756;2023-03-03T23:18:47;4.38;;;2.22;;
78901;SDS011;68290;44.716;37.756;2023-03-03T23:19:48;5.40;;;2.55;;
78901;SDS011;68290;44.716;37.756;2023-03-03T23:20:50;5.05;;;2.38;;
78901;SDS011;68290;44.716;37.756;2023-03-03T23:21:51;5.05;;;2.33;;
78901;SDS011;68290;44.716;37.756;2023-03-03T23:22:53;4.00;;;2.10;;
78901;SDS011;68290;44.716;37.756;2023-03-03T23:23:55;4.32;;;2.13;;
78901;SDS011;68290;44.716;37.756;2023-03-03T23:24:56;4.90;;;2.53;;
78901;SDS011;68290;44.716;37.756;2023-03-03T23:25:58;4.03;;;2.10;;
78901;SDS011;68290;44.716;37.756;2023-03-03T23:26:59;5.25;;;2.45;;
78901;SDS011;68290;44.716;37.756;2023-03-03T23:28:01;4.80;;;2.25;;
78901;SDS011;68290;44.716;37.756;2023-03-03T23:29:03;4.68;;;2.28;;
78901;SDS011;68290;44.716;37.756;2023-03-03T23:30:05;4.45;;;2.28;;
78901;SDS011;68290;44.716;37.756;2023-03-03T23:31:07;4.15;;;2.10;;
78901;SDS011;68290;44.716;37.756;2023-03-03T23:32:09;4.07;;;2.03;;
78901;SDS011;68290;44.716;37.756;2023-03-03T23:33:10;4.47;;;2.30;;
78901;SDS011;68290;44.716;37.756;2023-03-03T23:34:12;4.88;;;2.20;;
78901;SDS011;68290;44.716;37.756;2023-03-03T23:35:14;4.85;;;2.40;;
78901;SDS011;68290;44.716;37.756;2023-03-03T23:36:16;4.35;;;2.28;;
78901;SDS011;68290;44.716;37.756;2023-03-03T23:37:17;4.85;;;2.33;;
78901;SDS011;68290;44.716;37.756;2023-03-03T23:38:19;4.50;;;2.30;;
78901;SDS011;68290;44.716;37.756;2023-03-03T23:39:20;4.10;;;2.22;;
78901;SDS011;68290;44.716;37.756;2023-03-03T23:40:22;4.43;;;2.28;;
78901;SDS011;68290;44.716;37.756;2023-03-03T23:41:24;4.65;;;2.22;;
78901;SDS011;68290;44.716;37.756;2023-03-03T23:42:25;4.53;;;2.30;;
78901;SDS011;68290;44.716;37.756;2023-03-03T23:43:30;5.25;;;2.40;;
78901;SDS011;68290;44.716;37.756;2023-03-03T23:44:33;4.57;;;2.20;;
78901;SDS011;68290;44.716;37.756;2023-03-03T23:45:34;5.15;;;2.30;;
78901;SDS011;68290;44.716;37.756;2023-03-03T23:46:36;4.50;;;2.20;;
78901;SDS011;68290;44.716;37.756;2023-03-03T23:47:39;4.70;;;2.08;;
78901;SDS011;68290;44.716;37.756;2023-03-03T23:48:41;4.50;;;2.17;;
78901;SDS011;68290;44.716;37.756;2023-03-03T23:49:42;4.55;;;2.20;;
78901;SDS011;68290;44.716;37.756;2023-03-03T23:50:44;4.43;;;2.03;;
78901;SDS011;68290;44.716;37.756;2023-03-03T23:51:45;4.35;;;2.25;;
78901;SDS011;68290;44.716;37.756;2023-03-03T23:52:47;4.53;;;2.25;;
78901;SDS011;68290;44.716;37.756;2023-03-03T23:53:48;4.63;;;2.00;;
78901;SDS011;68290;44.716;37.756;2023-03-03T23:54:50;4.57;;;2.00;;
78901;SDS011;68290;44.716;37.756;2023-03-03T23:55:52;4.57;;;2.35;;
78901;SDS011;68290;44.716;37.756;2023-03-03T23:56:54;3.50;;;1.75;;
78901;SDS011;68290;44.716;37.756;2023-03-03T23:57:55;4.55;;;1.88;;
78901;SDS011;68290;44.716;37.756;2023-03-03T23:58:57;4.25;;;2.05;;
78901;SDS011;68290;44.716;37.756;2023-03-03T23:59:59;4.70;;;2.10;;
